TimeCDT,TemperatureF,Dew PointF,Humidity,Sea Level PressureIn,VisibilityMPH,Wind Direction,Wind SpeedMPH,Gust SpeedMPH,PrecipitationIn,Events,Conditions,WindDirDegrees,DateUTC
12:02 AM,41.0,39.2,93,29.95,7.0,NNW,17.3,21.9,0.01,Rain,Light Rain,330,2013-04-10 05:02:00
12:27 AM,41.0,39.2,93,29.96,5.0,North,19.6,28.8,0.05,,Overcast,360,2013-04-10 05:27:00
12:51 AM,39.2,39.2,100,29.92,9.0,NNE,16.1,29.9,0.06,Rain,Light Rain,30,2013-04-10 05:51:00
12:53 AM,39.9,39.9,100,29.92,9.0,NNE,17.3,28.8,0.06,Rain,Light Rain,30,2013-04-10 05:53:00
1:00 AM,39.2,39.2,100,29.90,4.0,NNE,20.7,29.9,0.05,Rain,Heavy Rain,30,2013-04-10 06:00:00
1:13 AM,39.2,39.2,100,29.89,5.0,NE,12.7,23.0,0.12,Rain-Thunderstorm,Light Thunderstorms and Rain,50,2013-04-10 06:13:00
1:28 AM,39.2,39.2,100,29.86,8.0,ENE,11.5,28.8,0.14,Rain,Light Rain,60,2013-04-10 06:28:00
1:53 AM,39.9,39.0,97,29.81,5.0,ENE,20.7,39.1,0.17,Rain,Light Rain,70,2013-04-10 06:53:00
2:17 AM,39.2,-9999,N/A,29.83,10.0,ENE,17.3,28.8,0.00,Rain-Thunderstorm,Light Rain,70,2013-04-10 07:17:00
2:28 AM,39.2,-9999,N/A,29.86,9.0,East,15.0,21.9,0.01,Rain-Thunderstorm,Light Rain,100,2013-04-10 07:28:00
2:49 AM,39.2,-9999,N/A,29.87,9.0,ENE,10.4,-,0.02,Rain,Light Rain,60,2013-04-10 07:49:00
2:53 AM,39.9,-9999,N/A,29.88,9.0,ENE,5.8,17.3,0.02,Rain,Light Rain,70,2013-04-10 07:53:00
3:21 AM,39.2,-9999,N/A,29.97,7.0,NNW,3.5,-,0.05,Rain,Light Rain,330,2013-04-10 08:21:00
3:24 AM,39.2,-9999,N/A,29.97,8.0,NW,8.1,-,0.05,Rain-Thunderstorm,Light Rain,320,2013-04-10 08:24:00
3:43 AM,39.2,-9999,N/A,29.96,5.0,NNW,6.9,-,0.09,Rain,Rain,330,2013-04-10 08:43:00
3:53 AM,39.0,-9999,N/A,29.97,5.0,North,8.1,-,0.13,Rain,Rain,360,2013-04-10 08:53:00
3:58 AM,39.2,-9999,N/A,29.95,5.0,North,8.1,-,0.02,Rain-Thunderstorm,Rain,10,2013-04-10 08:58:00
4:15 AM,39.2,-9999,N/A,29.92,6.0,NE,11.5,-,0.05,Rain,Light Rain,40,2013-04-10 09:15:00
4:53 AM,37.9,-9999,N/A,29.84,9.0,NE,20.7,28.8,0.13,Rain,Light Rain,50,2013-04-10 09:53:00
5:02 AM,37.4,-9999,N/A,29.81,10.0,NE,19.6,29.9,0.00,,Overcast,50,2013-04-10 10:02:00
5:28 AM,37.4,-9999,N/A,29.75,10.0,ENE,20.7,31.1,0.00,,Overcast,60,2013-04-10 10:28:00
5:53 AM,37.9,-9999,N/A,29.77,10.0,NE,20.7,32.2,0.00,,Overcast,50,2013-04-10 10:53:00
6:53 AM,37.9,-9999,N/A,29.94,10.0,Calm,Calm,-,N/A,,Overcast,0,2013-04-10 11:53:00
7:18 AM,37.4,-9999,N/A,29.97,3.0,SSW,3.5,-,0.03,Rain,Rain,200,2013-04-10 12:18:00
7:53 AM,37.0,36.0,96,29.93,2.5,ENE,6.9,-,0.14,Rain,Rain,60,2013-04-10 12:53:00
8:04 AM,37.4,35.6,93,29.91,5.0,ENE,8.1,-,0.01,Rain,Light Rain,70,2013-04-10 13:04:00
8:43 AM,37.4,37.4,100,29.87,10.0,NNE,15.0,-,0.01,,Overcast,30,2013-04-10 13:43:00
8:53 AM,37.9,37.0,97,29.88,10.0,NNE,12.7,-,0.01,,Overcast,30,2013-04-10 13:53:00
8:56 AM,37.4,37.4,100,29.88,10.0,NNE,11.5,-,N/A,,Overcast,20,2013-04-10 13:56:00
9:53 AM,37.0,36.0,96,29.93,6.0,NNE,10.4,-,0.02,Rain,Light Rain,30,2013-04-10 14:53:00
10:50 AM,37.4,35.6,93,29.91,10.0,NE,9.2,-,0.05,,Overcast,40,2013-04-10 15:50:00
10:53 AM,37.0,36.0,96,29.94,10.0,NE,9.2,-,0.05,,Overcast,40,2013-04-10 15:53:00
11:16 AM,37.4,35.6,93,29.93,10.0,NNE,12.7,-,N/A,,Overcast,30,2013-04-10 16:16:00
12:44 PM,37.4,37.4,100,29.94,9.0,ENE,10.4,-,0.02,Rain,Light Rain,70,2013-04-10 17:44:00
12:53 PM,37.9,37.0,97,29.94,10.0,ENE,10.4,-,0.02,,Overcast,70,2013-04-10 17:53:00
1:19 PM,37.4,37.4,100,29.91,5.0,ENE,9.2,-,0.02,Rain,Light Rain,70,2013-04-10 18:19:00
1:27 PM,37.4,37.4,100,29.91,4.0,East,10.4,19.6,0.03,Rain,Rain,80,2013-04-10 18:27:00
2:53 PM,37.9,36.0,93,29.93,4.0,NE,9.2,-,0.02,,Overcast,50,2013-04-10 19:53:00
2:58 PM,37.4,35.6,93,29.91,1.8,NE,10.4,-,0.00,Rain,Light Rain,50,2013-04-10 19:58:00
3:25 PM,37.4,37.4,100,29.88,1.5,NE,9.2,-,0.01,,Overcast,50,2013-04-10 20:25:00
3:31 PM,37.4,37.4,100,29.86,2.0,ENE,13.8,-,0.01,,Overcast,60,2013-04-10 20:31:00
3:38 PM,39.2,37.4,93,29.86,3.0,ENE,9.2,-,0.01,,Overcast,60,2013-04-10 20:38:00
3:45 PM,39.2,37.4,93,29.85,6.0,NE,12.7,-,0.01,,Overcast,50,2013-04-10 20:45:00
3:53 PM,39.0,37.0,93,29.89,10.0,NNE,4.6,-,0.01,,Overcast,20,2013-04-10 20:53:00
4:29 PM,39.2,37.4,93,29.86,5.0,NNE,10.4,-,N/A,,Overcast,30,2013-04-10 21:29:00
4:53 PM,39.0,37.0,93,29.86,7.0,NE,11.5,-,N/A,,Overcast,40,2013-04-10 21:53:00
5:53 PM,39.9,37.0,89,29.86,10.0,NE,11.5,-,N/A,,Overcast,50,2013-04-10 22:53:00
6:21 PM,39.2,37.4,93,29.83,10.0,NE,12.7,-,N/A,,Overcast,50,2013-04-10 23:21:00
6:53 PM,39.0,37.0,93,29.79,10.0,NE,17.3,24.2,N/A,,Overcast,40,2013-04-10 23:53:00
7:53 PM,37.9,36.0,93,29.80,10.0,ENE,11.5,18.4,N/A,,Overcast,70,2013-04-11 00:53:00
8:53 PM,37.9,36.0,93,29.82,10.0,East,8.1,17.3,N/A,,Overcast,90,2013-04-11 01:53:00
9:43 PM,37.4,35.6,93,29.80,10.0,ENE,8.1,-,N/A,,Overcast,70,2013-04-11 02:43:00
9:53 PM,37.9,36.0,93,29.81,10.0,ENE,8.1,-,N/A,,Overcast,70,2013-04-11 02:53:00
10:39 PM,37.4,35.6,93,29.77,2.5,ENE,10.4,-,0.01,Rain,Light Rain,70,2013-04-11 03:39:00
10:49 PM,37.4,35.6,93,29.76,3.0,ENE,9.2,-,0.01,,Overcast,70,2013-04-11 03:49:00
10:53 PM,37.0,36.0,96,29.77,3.0,ENE,9.2,-,0.01,,Overcast,70,2013-04-11 03:53:00
11:33 PM,37.4,35.6,93,29.73,2.5,ENE,10.4,-,0.04,Rain,Light Rain,70,2013-04-11 04:33:00
11:53 PM,37.0,36.0,96,29.73,3.0,ENE,8.1,-,0.04,,Overcast,70,2013-04-11 04:53:00